Time;durP1;ratioP1;P1;durP2;ratioP2;P2;SDS_P1;SDS_P2;PMS_P1;PMS_P2;Temp;Humidity;BMP_temperature;BMP_pressure;BME280_temperature;BME280_humidity;BME280_pressure;Samples;Min_cycle;Max_cycle;Signal;HPM_P1;HPM_P2
2022/03/18 00:00:56;;;;;;;14.70;6.23;;;0.40;99.90;;;;;;5115866;28;20420;-78
2022/03/18 00:03:22;;;;;;;14.70;6.83;;;0.40;99.90;;;;;;5116040;28;20194;-78
2022/03/18 00:05:48;;;;;;;8.83;5.93;;;0.40;99.90;;;;;;5115933;28;20423;-78
2022/03/18 00:08:14;;;;;;;16.00;7.47;;;0.30;99.90;;;;;;5114348;28;20659;-78
2022/03/18 00:10:40;;;;;;;11.23;6.57;;;0.30;99.90;;;;;;5115911;28;20482;-78
2022/03/18 00:13:05;;;;;;;13.30;5.90;;;0.30;99.90;;;;;;5115899;28;20360;-78
2022/03/18 00:15:31;;;;;;;11.97;6.90;;;0.20;99.90;;;;;;5115672;28;20569;-78
2022/03/18 00:17:56;;;;;;;11.60;6.40;;;0.20;99.90;;;;;;5115802;28;20178;-78
2022/03/18 00:20:22;;;;;;;9.20;5.73;;;0.30;99.90;;;;;;5115673;28;20413;-78
2022/03/18 00:22:49;;;;;;;7.27;4.50;;;0.20;99.90;;;;;;5115458;27;20525;-78
2022/03/18 00:25:16;;;;;;;12.63;6.23;;;0.10;99.90;;;;;;5115699;27;20781;-78
2022/03/18 00:27:46;;;;;;;8.07;6.13;;;0.10;99.90;;;;;;5115511;28;20444;-78
2022/03/18 00:30:16;;;;;;;11.87;6.33;;;0.00;99.90;;;;;;5114336;28;20417;-78
2022/03/18 00:32:44;;;;;;;8.70;4.97;;;0.10;99.90;;;;;;5115334;28;20453;-78
2022/03/18 00:35:10;;;;;;;14.13;5.77;;;0.10;99.90;;;;;;5115340;28;20518;-78
2022/03/18 00:37:37;;;;;;;14.43;4.80;;;0.10;99.90;;;;;;5113772;28;20401;-78
2022/03/18 00:40:04;;;;;;;9.97;5.20;;;0.00;99.90;;;;;;5115343;28;20411;-77
2022/03/18 00:42:31;;;;;;;7.30;5.03;;;0.00;99.90;;;;;;5115251;28;20415;-77
2022/03/18 00:44:58;;;;;;;16.13;5.87;;;0.10;99.90;;;;;;5115335;28;20444;-78
2022/03/18 00:52:51;;;;;;;8.27;5.80;;;0.10;99.90;;;;;;5114774;28;20804;-78
2022/03/18 00:55:17;;;;;;;7.40;5.40;;;0.00;99.90;;;;;;5114918;28;20469;-78
2022/03/18 00:57:42;;;;;;;8.43;4.57;;;0.10;99.90;;;;;;5114985;28;20536;-78
2022/03/18 01:00:08;;;;;;;9.03;5.37;;;0.10;99.90;;;;;;5114887;28;20171;-77
2022/03/18 01:02:33;;;;;;;10.57;5.30;;;0.10;99.90;;;;;;5115031;28;20163;-78
2022/03/18 01:04:59;;;;;;;9.40;5.40;;;0.00;99.90;;;;;;5115014;28;20482;-77
2022/03/18 01:07:25;;;;;;;12.77;6.70;;;0.00;99.90;;;;;;5114503;28;20171;-77
2022/03/18 01:09:50;;;;;;;9.10;4.53;;;0.10;99.90;;;;;;5114538;28;20168;-78
2022/03/18 01:12:16;;;;;;;8.53;5.13;;;-0.10;99.90;;;;;;5114499;28;20180;-78
2022/03/18 01:14:42;;;;;;;13.33;7.00;;;-0.10;99.90;;;;;;5113002;28;20262;-78
2022/03/18 01:17:08;;;;;;;12.77;6.17;;;-0.10;99.90;;;;;;5114729;28;20401;-77
2022/03/18 01:19:33;;;;;;;11.73;4.70;;;-0.20;99.90;;;;;;5114816;28;20273;-77
2022/03/18 01:21:59;;;;;;;8.63;4.80;;;-0.20;99.90;;;;;;5112816;28;20544;-78
2022/03/18 01:24:24;;;;;;;10.63;5.30;;;-0.10;99.90;;;;;;5113138;28;20175;-78
2022/03/18 01:26:53;;;;;;;16.00;6.33;;;-0.10;99.90;;;;;;5113052;28;20225;-78
2022/03/18 01:29:18;;;;;;;10.27;4.83;;;-0.10;99.90;;;;;;5114231;28;20520;-77
2022/03/18 01:31:44;;;;;;;13.50;5.27;;;-0.50;99.90;;;;;;5114352;28;20424;-78
2022/03/18 01:34:09;;;;;;;13.37;6.03;;;-0.10;99.90;;;;;;5113916;28;20256;-78
2022/03/18 01:36:35;;;;;;;13.87;6.00;;;-0.20;99.90;;;;;;5114214;28;20175;-78
2022/03/18 01:39:01;;;;;;;16.13;5.30;;;-0.10;99.90;;;;;;5113860;28;20169;-77
2022/03/18 01:41:26;;;;;;;8.83;6.40;;;-0.10;99.90;;;;;;5114070;28;20501;-77
2022/03/18 01:43:53;;;;;;;9.73;4.80;;;-0.20;99.90;;;;;;5114080;28;20163;-78
2022/03/18 01:46:19;;;;;;;11.17;5.63;;;-0.40;99.90;;;;;;5114102;28;20691;-77
2022/03/18 01:48:45;;;;;;;12.53;6.67;;;;;;;;;;5114039;28;20493;-78
2022/03/18 01:51:15;;;;;;;8.83;5.70;;;-0.40;99.90;;;;;;5113982;28;20418;-77
2022/03/18 01:53:42;;;;;;;7.80;4.67;;;-0.30;99.90;;;;;;5113524;28;20823;-77
2022/03/18 01:56:08;;;;;;;9.00;5.70;;;-0.30;99.90;;;;;;5113833;28;20493;-78
2022/03/18 01:58:33;;;;;;;13.20;6.07;;;-0.30;99.90;;;;;;5113776;28;20415;-77
2022/03/18 02:00:59;;;;;;;15.67;6.27;;;-0.30;99.90;;;;;;5113814;27;20635;-77
2022/03/18 02:03:25;;;;;;;9.47;5.17;;;-0.40;99.90;;;;;;5113704;28;20815;-78
2022/03/18 02:05:50;;;;;;;7.80;4.67;;;-0.30;99.90;;;;;;5113670;28;20631;-78
2022/03/18 02:08:17;;;;;;;10.17;4.80;;;-0.40;99.90;;;;;;5113248;28;20509;-78
2022/03/18 02:10:43;;;;;;;11.87;5.37;;;-0.30;99.90;;;;;;5113584;28;20167;-77
2022/03/18 02:13:08;;;;;;;9.60;4.47;;;-0.30;99.90;;;;;;5113579;28;20424;-77
2022/03/18 02:15:34;;;;;;;6.80;4.47;;;-0.30;99.90;;;;;;5113413;28;20507;-77
2022/03/18 02:17:59;;;;;;;15.67;5.13;;;-0.40;99.90;;;;;;5113571;28;20168;-78
2022/03/18 02:20:25;;;;;;;13.27;6.57;;;-0.40;99.90;;;;;;5112226;28;20174;-78
2022/03/18 02:22:51;;;;;;;15.33;5.90;;;-0.40;99.90;;;;;;5113112;28;20206;-77
2022/03/18 02:25:16;;;;;;;16.63;6.77;;;-0.40;99.90;;;;;;5112404;28;20581;-78
2022/03/18 02:27:55;;;;;;;21.90;8.63;;;-0.40;99.90;;;;;;5113220;28;20408;-78
2022/03/18 02:30:20;;;;;;;18.13;6.77;;;-0.40;99.90;;;;;;5112052;28;20208;-77
2022/03/18 02:32:48;;;;;;;19.27;7.33;;;-0.50;99.90;;;;;;5112965;28;20450;-78
2022/03/18 02:35:14;;;;;;;18.37;6.17;;;-0.40;99.90;;;;;;5113170;28;20211;-78
2022/03/18 02:37:39;;;;;;;15.43;8.17;;;-0.50;99.90;;;;;;5112819;28;20462;-77
2022/03/18 02:40:05;;;;;;;17.07;6.23;;;-0.60;99.90;;;;;;5113052;28;20175;-78
2022/03/18 02:42:34;;;;;;;17.83;7.20;;;-0.60;99.90;;;;;;5113248;28;20165;-77
2022/03/18 02:45:00;;;;;;;11.30;6.77;;;-0.60;99.90;;;;;;5112950;28;20449;-77
2022/03/18 02:47:26;;;;;;;14.73;7.80;;;-0.50;99.90;;;;;;5111849;28;20517;-78
2022/03/18 02:49:52;;;;;;;17.80;6.90;;;-0.60;99.90;;;;;;5113181;28;20489;-78
2022/03/18 02:52:17;;;;;;;16.27;7.47;;;-0.60;99.90;;;;;;5112744;28;20411;-77
2022/03/18 02:54:43;;;;;;;15.53;7.80;;;-0.60;99.90;;;;;;5113083;28;20205;-78
2022/03/18 02:57:09;;;;;;;10.43;5.60;;;-0.60;99.90;;;;;;5113188;28;20227;-77
2022/03/18 02:59:35;;;;;;;13.80;8.20;;;-0.60;99.90;;;;;;5113150;28;20178;-77
2022/03/18 03:02:00;;;;;;;17.77;7.27;;;-0.60;99.90;;;;;;5113220;28;20419;-78
2022/03/18 03:04:26;;;;;;;20.03;8.30;;;-0.40;99.90;;;;;;5113063;28;20690;-77
2022/03/18 03:09:35;;;;;;;13.40;6.23;;;-0.40;99.90;;;;;;5112926;28;20181;-78
2022/03/18 03:12:01;;;;;;;12.40;5.77;;;-0.40;99.90;;;;;;5112985;28;20417;-77
2022/03/18 03:14:26;;;;;;;14.67;6.77;;;-0.60;99.90;;;;;;5113014;28;20198;-77
2022/03/18 03:16:52;;;;;;;12.37;5.23;;;-0.50;99.90;;;;;;5112869;28;20176;-78
2022/03/18 03:19:18;;;;;;;11.33;5.07;;;-0.50;99.90;;;;;;5112796;28;20170;-77
2022/03/18 03:21:43;;;;;;;8.33;5.87;;;-0.40;99.90;;;;;;5112465;28;20219;-78
2022/03/18 03:24:09;;;;;;;18.77;8.07;;;-0.60;99.90;;;;;;5111538;28;20165;-78
2022/03/18 03:26:34;;;;;;;9.90;5.60;;;-0.70;99.90;;;;;;5112735;28;20199;-78
2022/03/18 03:29:06;;;;;;;11.80;6.53;;;-0.70;99.90;;;;;;5105708;28;20207;-77
2022/03/18 03:31:31;;;;;;;7.77;6.10;;;-0.90;99.90;;;;;;5111717;28;20177;-77
2022/03/18 03:33:57;;;;;;;9.67;5.53;;;-0.70;99.90;;;;;;5109229;28;20448;-78
2022/03/18 03:36:25;;;;;;;10.77;7.07;;;-0.60;99.90;;;;;;5111099;28;20203;-77
2022/03/18 03:38:51;;;;;;;15.93;7.43;;;-0.70;99.90;;;;;;5115597;28;20170;-78
2022/03/18 03:41:20;;;;;;;14.77;6.87;;;-0.80;99.90;;;;;;5116476;28;20465;-77
2022/03/18 03:43:52;;;;;;;12.57;6.43;;;-0.70;99.90;;;;;;5116510;28;20166;-77
2022/03/18 03:46:18;;;;;;;11.07;7.10;;;-0.70;99.90;;;;;;5115119;28;20415;-77
2022/03/18 03:48:43;;;;;;;9.43;5.53;;;-0.80;99.90;;;;;;5116337;28;20454;-77
2022/03/18 03:51:12;;;;;;;13.63;6.10;;;-0.90;99.90;;;;;;5116139;28;20178;-77
2022/03/18 03:53:40;;;;;;;4.77;4.33;;;-0.80;99.90;;;;;;5115848;28;20310;-77
2022/03/18 03:56:07;;;;;;;8.83;5.23;;;;;;;;;;5114734;28;21030;-77
2022/03/18 03:58:32;;;;;;;13.67;6.43;;;-0.90;99.90;;;;;;5116069;28;20405;-78
2022/03/18 04:01:01;;;;;;;15.60;6.30;;;-0.80;99.90;;;;;;5116057;28;20780;-77
2022/03/18 04:03:28;;;;;;;9.23;5.93;;;-0.90;99.90;;;;;;5115995;28;20177;-77
2022/03/18 04:05:53;;;;;;;6.90;4.67;;;-0.90;99.90;;;;;;5115904;28;20409;-77
2022/03/18 04:08:19;;;;;;;7.03;5.10;;;-0.80;99.90;;;;;;5115554;28;20412;-78
2022/03/18 04:10:45;;;;;;;8.50;4.27;;;-0.90;99.90;;;;;;5115957;28;20198;-77
2022/03/18 04:13:11;;;;;;;7.13;5.03;;;-1.00;99.90;;;;;;5115787;28;20197;-78
2022/03/18 04:15:36;;;;;;;5.97;4.30;;;-0.90;99.90;;;;;;5115690;28;20497;-77
2022/03/18 04:18:02;;;;;;;7.30;4.40;;;;;;;;;;5115715;28;20198;-78
2022/03/18 04:20:30;;;;;;;6.47;4.87;;;-1.00;99.90;;;;;;5115728;28;20600;-77
2022/03/18 04:22:55;;;;;;;4.57;3.80;;;-1.10;99.90;;;;;;5115351;28;20405;-78
2022/03/18 04:25:21;;;;;;;12.47;5.00;;;-1.00;99.90;;;;;;5115570;28;20450;-77
2022/03/18 04:27:47;;;;;;;6.77;4.70;;;-1.10;99.90;;;;;;5114323;28;20167;-78
2022/03/18 04:30:13;;;;;;;9.33;5.40;;;-0.90;99.90;;;;;;5115556;28;20247;-77
2022/03/18 04:32:40;;;;;;;7.23;5.77;;;-0.90;99.90;;;;;;5115175;28;20248;-78
2022/03/18 04:35:07;;;;;;;4.77;4.20;;;-0.90;99.90;;;;;;5115462;28;20466;-77
2022/03/18 04:37:32;;;;;;;5.30;4.53;;;-0.90;99.90;;;;;;5115092;28;20404;-77
2022/03/18 04:39:58;;;;;;;5.53;5.03;;;-1.00;99.90;;;;;;5115403;28;20742;-77
2022/03/18 04:42:24;;;;;;;10.40;4.60;;;-0.80;99.90;;;;;;5131316;27;20262;-77
2022/03/18 04:44:49;;;;;;;6.50;4.40;;;-0.80;99.90;;;;;;5113993;28;20170;-77
2022/03/18 04:47:15;;;;;;;5.10;3.50;;;-1.00;99.90;;;;;;5114596;28;20168;-77
2022/03/18 04:49:41;;;;;;;5.27;3.90;;;-0.90;99.90;;;;;;5113542;28;20187;-78
2022/03/18 04:52:06;;;;;;;5.93;4.13;;;-0.90;99.90;;;;;;5114784;28;20173;-78
2022/03/18 04:54:32;;;;;;;5.73;4.10;;;-0.90;99.90;;;;;;5113704;28;20457;-77
2022/03/18 04:57:16;;;;;;;6.63;4.27;;;-1.00;99.90;;;;;;5115192;28;20206;-77
2022/03/18 04:59:42;;;;;;;5.70;4.83;;;-1.10;99.90;;;;;;5115100;28;20194;-78
2022/03/18 05:02:10;;;;;;;6.10;5.40;;;-0.90;99.90;;;;;;5114935;28;20421;-77
2022/03/18 05:04:36;;;;;;;9.57;5.80;;;-0.80;99.90;;;;;;5114947;28;20452;-78
2022/03/18 05:07:03;;;;;;;6.03;4.10;;;-0.70;99.90;;;;;;5114501;28;20445;-77
2022/03/18 05:09:28;;;;;;;7.17;4.53;;;-0.70;99.90;;;;;;5114692;28;20420;-78
2022/03/18 05:11:54;;;;;;;6.50;4.60;;;-0.70;99.90;;;;;;5114756;28;20748;-77
2022/03/18 05:14:19;;;;;;;5.10;4.27;;;-0.70;99.90;;;;;;5114646;28;20717;-78
2022/03/18 05:16:45;;;;;;;6.93;4.80;;;-0.70;99.90;;;;;;5114706;28;20213;-77
2022/03/18 05:19:11;;;;;;;6.37;5.10;;;;;;;;;;5114619;28;20567;-77
2022/03/18 05:21:37;;;;;;;9.20;4.73;;;-0.70;99.90;;;;;;5114151;28;20177;-77
2022/03/18 05:24:03;;;;;;;5.53;4.40;;;-0.70;99.90;;;;;;5113111;28;20404;-77
2022/03/18 05:26:29;;;;;;;5.93;4.90;;;-0.70;99.90;;;;;;5114464;28;20420;-77
2022/03/18 05:28:55;;;;;;;6.00;5.50;;;-0.80;99.90;;;;;;5114399;28;20410;-77
2022/03/18 05:31:21;;;;;;;5.90;4.90;;;-0.90;99.90;;;;;;5114367;28;20170;-77
2022/03/18 05:33:46;;;;;;;6.40;5.77;;;-0.90;99.90;;;;;;5114144;28;20521;-78
2022/03/18 05:36:12;;;;;;;5.60;4.33;;;-0.70;99.90;;;;;;5113766;28;20686;-77
2022/03/18 05:38:37;;;;;;;5.70;4.60;;;-0.70;99.90;;;;;;5114264;28;20167;-77
2022/03/18 05:41:03;;;;;;;6.47;4.60;;;-0.70;99.90;;;;;;5114198;28;20199;-77
2022/03/18 05:43:28;;;;;;;3.90;3.37;;;-0.70;99.90;;;;;;5112876;28;20167;-77
2022/03/18 05:45:54;;;;;;;5.97;4.67;;;-0.60;99.90;;;;;;5114096;28;20171;-77
2022/03/18 05:48:19;;;;;;;5.93;3.13;;;-0.60;99.90;;;;;;5114048;28;20168;-77
2022/03/18 05:50:45;;;;;;;7.10;3.60;;;-0.60;99.90;;;;;;5112729;28;20251;-77
2022/03/18 05:53:12;;;;;;;4.63;3.43;;;-0.70;99.90;;;;;;5113687;28;20198;-77
2022/03/18 05:58:21;;;;;;;4.03;3.40;;;-0.50;99.90;;;;;;5114072;28;20420;-77
2022/03/18 06:00:47;;;;;;;5.73;4.63;;;-0.50;99.90;;;;;;5113924;28;20415;-78
2022/03/18 06:03:13;;;;;;;8.73;4.60;;;-0.40;99.90;;;;;;5113791;28;20176;-78
2022/03/18 06:05:40;;;;;;;5.07;4.03;;;-0.30;99.90;;;;;;5113712;28;20415;-78
2022/03/18 06:13:34;;;;;;;6.93;3.90;;;-0.10;99.90;;;;;;5113599;28;20423;-77
2022/03/18 06:15:59;;;;;;;4.90;3.83;;;0.00;99.90;;;;;;5113367;28;20548;-78
2022/03/18 06:18:25;;;;;;;4.23;3.70;;;;;;;;;;5113603;28;20164;-77
2022/03/18 06:20:51;;;;;;;5.70;4.77;;;0.30;99.90;;;;;;5113217;28;20171;-78
2022/03/18 06:23:17;;;;;;;12.20;4.83;;;;;;;;;;5113493;28;20397;-77
2022/03/18 06:25:43;;;;;;;6.90;4.10;;;0.40;99.90;;;;;;5113496;28;20497;-78
2022/03/18 06:28:11;;;;;;;8.40;3.70;;;0.60;99.90;;;;;;5113483;28;20458;-77
2022/03/18 06:30:36;;;;;;;6.10;4.37;;;0.90;99.90;;;;;;5113449;28;20310;-77
2022/03/18 06:33:02;;;;;;;6.60;4.50;;;1.10;99.90;;;;;;5113164;28;20498;-77
2022/03/18 06:35:28;;;;;;;5.00;4.20;;;1.30;99.90;;;;;;5113309;28;20568;-77
2022/03/18 06:37:57;;;;;;;5.87;4.83;;;;;;;;;;5113206;27;20168;-78
2022/03/18 06:40:23;;;;;;;8.07;4.50;;;;;;;;;;5113311;28;20171;-78
2022/03/18 06:42:48;;;;;;;13.10;4.73;;;;;;;;;;5113247;28;20406;-78
2022/03/18 06:45:14;;;;;;;7.80;4.27;;;;;;;;;;5113177;28;20441;-78
2022/03/18 06:47:40;;;;;;;7.00;4.30;;;;;;;;;;5113091;28;20956;-78
2022/03/18 06:50:09;;;;;;;10.93;3.73;;;;;;;;;;5113126;28;20440;-78
2022/03/18 06:52:34;;;;;;;10.50;4.27;;;;;;;;;;5112936;28;20404;-78
2022/03/18 06:55:01;;;;;;;5.10;2.90;;;;;;;;;;5113699;28;20968;-78
2022/03/18 06:57:27;;;;;;;6.67;4.00;;;;;;;;;;5112321;28;20414;-78
2022/03/18 06:59:53;;;;;;;6.37;3.20;;;;;;;;;;5113686;28;20417;-78
2022/03/18 07:02:21;;;;;;;10.10;4.80;;;;;;;;;;5112159;28;20416;-77
2022/03/18 07:04:47;;;;;;;7.20;3.00;;;;;;;;;;5113498;28;20413;-78
2022/03/18 07:07:13;;;;;;;7.63;3.90;;;;;;;;;;5113158;28;20421;-77
2022/03/18 07:09:39;;;;;;;8.40;4.00;;;;;;;;;;5113404;28;20462;-77
2022/03/18 07:12:05;;;;;;;5.50;3.77;;;;;;;;;;5116115;28;20558;-77
2022/03/18 07:14:31;;;;;;;5.10;3.27;;;;;;;;;;5117883;28;20457;-77
2022/03/18 07:19:43;;;;;;;10.77;5.43;;;;;;;;;;5117252;28;20393;-78
2022/03/18 07:22:09;;;;;;;7.20;4.10;;;;;;;;;;5116398;28;20438;-78
2022/03/18 07:24:41;;;;;;;4.87;3.33;;;;;;;;;;5116785;28;20394;-78
2022/03/18 07:27:07;;;;;;;9.00;4.13;;;;;;;;;;5116653;28;20405;-78
2022/03/18 07:29:35;;;;;;;11.70;3.27;;;2.70;99.90;;;;;;5116561;28;20836;-78
2022/03/18 07:32:04;;;;;;;10.93;5.53;;;2.90;99.90;;;;;;5116520;28;20410;-78
2022/03/18 07:34:29;;;;;;;9.93;4.07;;;2.80;99.90;;;;;;5116309;28;20485;-78
2022/03/18 07:36:55;;;;;;;5.20;3.07;;;3.00;99.90;;;;;;5116399;28;20508;-78
2022/03/18 07:39:20;;;;;;;7.87;3.70;;;3.10;99.90;;;;;;5116411;28;20168;-78
2022/03/18 07:41:46;;;;;;;7.03;3.53;;;3.20;99.90;;;;;;5115129;28;20176;-78
2022/03/18 07:44:12;;;;;;;7.77;3.90;;;3.20;99.90;;;;;;5116323;28;20164;-78
2022/03/18 07:46:46;;;;;;;8.00;4.13;;;3.10;99.90;;;;;;5115040;28;20182;-78
2022/03/18 07:49:12;;;;;;;11.97;5.00;;;3.20;99.90;;;;;;5115065;28;20529;-78
2022/03/18 07:51:38;;;;;;;8.50;4.60;;;3.30;99.90;;;;;;5117469;28;20409;-78
2022/03/18 07:54:04;;;;;;;7.90;3.53;;;3.00;99.90;;;;;;5116210;28;20405;-78
2022/03/18 07:56:30;;;;;;;6.97;3.60;;;3.30;99.90;;;;;;5115966;28;20212;-78
2022/03/18 07:59:04;;;;;;;6.53;3.50;;;3.40;99.90;;;;;;5114735;28;20171;-78
2022/03/18 08:01:30;;;;;;;11.23;4.40;;;3.40;99.90;;;;;;5116125;28;20435;-78
2022/03/18 08:03:55;;;;;;;8.70;3.93;;;3.50;99.90;;;;;;5116054;28;20402;-78
2022/03/18 08:06:21;;;;;;;10.33;4.00;;;3.80;99.90;;;;;;5115677;28;20198;-78
2022/03/18 08:08:47;;;;;;;7.70;4.40;;;3.90;99.90;;;;;;5115965;28;20164;-78
2022/03/18 08:11:14;;;;;;;11.60;3.70;;;4.10;99.90;;;;;;5115906;28;20592;-78
2022/03/18 08:13:39;;;;;;;8.27;4.60;;;4.20;99.90;;;;;;5115813;28;20171;-78
2022/03/18 08:16:05;;;;;;;13.07;4.70;;;4.20;99.90;;;;;;5115777;28;20470;-78
2022/03/18 08:18:31;;;;;;;10.40;3.50;;;4.20;99.90;;;;;;5115751;28;20171;-78
2022/03/18 08:20:56;;;;;;;16.80;4.37;;;4.00;99.90;;;;;;5115389;28;20413;-78
2022/03/18 08:23:23;;;;;;;11.53;4.40;;;4.10;99.90;;;;;;5115682;28;20252;-78
2022/03/18 08:25:48;;;;;;;7.93;3.87;;;4.20;99.90;;;;;;5115555;28;20192;-78
2022/03/18 08:28:14;;;;;;;14.57;4.00;;;4.20;99.90;;;;;;5115588;28;20483;-78
2022/03/18 08:30:40;;;;;;;6.60;3.77;;;4.20;99.90;;;;;;5115591;28;20185;-78
2022/03/18 08:33:05;;;;;;;7.27;4.20;;;4.50;99.90;;;;;;5115337;28;20207;-78
2022/03/18 08:35:36;;;;;;;11.80;4.60;;;4.40;99.90;;;;;;5115017;28;20238;-78
2022/03/18 08:38:03;;;;;;;7.43;3.80;;;4.30;99.90;;;;;;5115422;27;20174;-78
2022/03/18 08:40:37;;;;;;;10.67;3.80;;;4.30;99.90;;;;;;5115296;28;20413;-78
2022/03/18 08:43:04;;;;;;;8.77;4.37;;;4.40;99.90;;;;;;5114073;28;20413;-78
2022/03/18 08:45:30;;;;;;;9.87;3.67;;;4.80;99.90;;;;;;5115102;28;20505;-78
2022/03/18 08:47:57;;;;;;;10.47;4.33;;;5.00;99.90;;;;;;5115145;28;20417;-78
2022/03/18 08:50:23;;;;;;;7.33;3.97;;;5.20;99.90;;;;;;5115177;28;20413;-78
2022/03/18 08:52:51;;;;;;;7.87;2.97;;;5.40;99.90;;;;;;5113664;28;20419;-78
2022/03/18 08:55:23;;;;;;;4.27;2.97;;;5.60;99.90;;;;;;5114940;28;20464;-78
2022/03/18 08:57:49;;;;;;;8.10;3.97;;;5.60;99.90;;;;;;5114870;28;20802;-78
2022/03/18 09:00:16;;;;;;;7.10;3.47;;;5.70;99.90;;;;;;5114948;28;20439;-78
2022/03/18 09:02:46;;;;;;;8.40;4.07;;;6.10;99.90;;;;;;5114906;28;20593;-78
2022/03/18 09:05:12;;;;;;;12.40;5.20;;;6.30;99.90;;;;;;5114877;28;20412;-78
2022/03/18 09:07:39;;;;;;;6.63;3.10;;;7.50;99.90;;;;;;5114355;28;20551;-78
2022/03/18 09:10:08;;;;;;;6.33;3.63;;;8.00;99.90;;;;;;5113424;28;20458;-78
2022/03/18 09:12:34;;;;;;;10.40;3.10;;;10.40;99.90;;;;;;5114584;28;20444;-78
2022/03/18 09:15:02;;;;;;;6.73;2.57;;;12.60;99.90;;;;;;5114560;28;20552;-79
2022/03/18 09:17:28;;;;;;;8.50;3.93;;;13.30;1.10;;;;;;5114584;28;20172;-79
2022/03/18 09:19:53;;;;;;;5.27;2.47;;;13.90;1.00;;;;;;5114618;28;20409;-79
2022/03/18 09:22:19;;;;;;;5.77;3.20;;;14.00;1.00;;;;;;5114207;28;20171;-79
2022/03/18 09:24:46;;;;;;;7.60;3.03;;;14.60;1.00;;;;;;5114525;28;20643;-79
2022/03/18 09:27:12;;;;;;;5.60;2.50;;;14.00;1.00;;;;;;5114393;28;20483;-79
2022/03/18 09:29:38;;;;;;;5.83;2.70;;;14.90;1.00;;;;;;5114443;28;20921;-77
2022/03/18 09:32:05;;;;;;;7.77;3.87;;;15.50;1.00;;;;;;5114293;28;20478;-77
2022/03/18 09:34:31;;;;;;;6.13;2.93;;;15.60;1.00;;;;;;5111586;28;20935;-77
2022/03/18 09:36:57;;;;;;;6.90;3.90;;;16.30;1.00;;;;;;5113567;28;20421;-77
2022/03/18 09:39:24;;;;;;;7.80;2.73;;;17.50;1.00;;;;;;5114153;28;20199;-77
2022/03/18 09:41:50;;;;;;;6.53;3.40;;;16.90;1.00;;;;;;5114083;28;20777;-77
2022/03/18 09:44:16;;;;;;;4.77;3.30;;;17.10;1.00;;;;;;5114229;28;20406;-77
2022/03/18 09:46:45;;;;;;;6.40;3.20;;;17.10;99.90;;;;;;5113974;28;20438;-77
2022/03/18 09:49:17;;;;;;;7.90;4.20;;;17.70;99.90;;;;;;5113968;28;20921;-77
2022/03/18 09:51:42;;;;;;;11.00;3.70;;;17.40;6.90;;;;;;5113582;28;20782;-77
2022/03/18 09:54:10;;;;;;;7.60;4.50;;;16.00;1.00;;;;;;5114015;28;20402;-77
2022/03/18 09:56:38;;;;;;;7.87;4.57;;;16.20;99.90;;;;;;5113845;28;20242;-77
2022/03/18 09:59:04;;;;;;;6.70;4.17;;;15.70;1.00;;;;;;5113654;28;20421;-77
2022/03/18 10:01:29;;;;;;;9.40;4.63;;;16.10;99.90;;;;;;5113822;28;20776;-77
2022/03/18 10:04:01;;;;;;;7.33;4.10;;;;;;;;;;5113742;28;20192;-77
2022/03/18 10:06:28;;;;;;;4.10;3.70;;;18.40;99.90;;;;;;5113375;28;20183;-77
2022/03/18 10:08:55;;;;;;;6.20;4.53;;;18.30;1.00;;;;;;5113695;28;20417;-77
2022/03/18 10:11:27;;;;;;;9.67;5.23;;;18.30;1.00;;;;;;5124284;28;20456;-76
2022/03/18 10:13:56;;;;;;;6.23;4.33;;;19.40;1.00;;;;;;5117732;28;20401;-77
2022/03/18 10:16:36;;;;;;;9.43;5.10;;;19.50;1.00;;;;;;5113760;28;20496;-77
2022/03/18 10:19:03;;;;;;;12.60;5.27;;;19.80;1.00;;;;;;5113612;28;20404;-78
2022/03/18 10:21:29;;;;;;;8.47;4.23;;;19.50;1.00;;;;;;5113220;28;20461;-77
2022/03/18 10:24:06;;;;;;;5.97;4.60;;;;;;;;;;5112256;28;20416;-78
2022/03/18 10:26:34;;;;;;;12.03;5.90;;;;;;;;;;5113444;28;20795;-78
2022/03/18 10:29:11;;;;;;;8.33;4.90;;;;;;;;;;5112114;28;20417;-78
2022/03/18 10:31:39;;;;;;;9.53;4.90;;;;;;;;;;5113458;28;20393;-78
2022/03/18 10:37:11;;;;;;;6.33;4.50;;;19.30;1.00;;;;;;5113297;28;20992;-78
2022/03/18 10:39:43;;;;;;;13.00;7.37;;;20.20;1.00;;;;;;5129274;28;20413;-78
2022/03/18 10:42:13;;;;;;;9.27;5.30;;;19.40;1.00;;;;;;5113357;28;20421;-78
2022/03/18 10:44:53;;;;;;;10.80;5.57;;;19.90;1.00;;;;;;5113316;28;20424;-78
2022/03/18 10:47:35;;;;;;;10.27;5.30;;;19.80;1.00;;;;;;5116493;28;20405;-78
2022/03/18 10:50:10;;;;;;;6.40;4.60;;;19.80;1.00;;;;;;5117671;28;20408;-78
2022/03/18 10:52:40;;;;;;;9.60;5.43;;;18.80;1.00;;;;;;5116234;28;20417;-77
2022/03/18 10:55:19;;;;;;;9.40;5.07;;;20.00;1.00;;;;;;5117349;28;20482;-78
2022/03/18 10:57:53;;;;;;;11.30;5.60;;;20.50;1.00;;;;;;5117439;28;20410;-78
2022/03/18 11:00:20;;;;;;;11.73;4.70;;;19.90;1.00;;;;;;5117450;28;20416;-78
2022/03/18 11:02:52;;;;;;;8.03;5.47;;;;;;;;;;5115883;28;20857;-78
2022/03/18 11:05:21;;;;;;;8.33;5.30;;;;;;;;;;5116849;28;20527;-78
2022/03/18 11:07:50;;;;;;;10.30;6.53;;;;;;;;;;5117062;28;20413;-78
2022/03/18 11:13:03;;;;;;;10.20;5.20;;;;;;;;;;5117108;28;20459;-78
2022/03/18 11:15:33;;;;;;;11.17;5.77;;;;;;;;;;5116796;28;20818;-78
2022/03/18 11:17:59;;;;;;;12.20;5.67;;;;;;;;;;5116836;28;20409;-78
2022/03/18 11:20:27;;;;;;;10.60;5.67;;;;;;;;;;5116654;28;20507;-77
2022/03/18 11:22:53;;;;;;;8.70;5.20;;;;;;;;;;5115482;28;20462;-78
2022/03/18 11:25:20;;;;;;;14.17;7.07;;;;;;;;;;5116787;28;20898;-78
2022/03/18 11:27:47;;;;;;;9.83;6.00;;;21.50;1.00;;;;;;5115437;28;20417;-78
2022/03/18 11:30:22;;;;;;;14.47;6.40;;;;;;;;;;5116630;28;20513;-78
2022/03/18 11:33:06;;;;;;;9.07;5.70;;;;;;;;;;5116445;28;20547;-77
2022/03/18 11:35:50;;;;;;;12.30;6.47;;;;;;;;;;5116278;28;20405;-78
2022/03/18 11:38:17;;;;;;;9.87;5.10;;;;;;;;;;5116491;28;20397;-78
2022/03/18 11:41:00;;;;;;;8.47;5.73;;;;;;;;;;5116540;28;20416;-77
2022/03/18 11:43:43;;;;;;;8.20;4.80;;;21.80;1.00;;;;;;5116435;27;20885;-78
2022/03/18 11:46:12;;;;;;;10.30;5.20;;;;;;;;;;5116324;28;20502;-78
2022/03/18 11:48:41;;;;;;;8.17;5.97;;;;;;;;;;5116308;28;20406;-78
2022/03/18 11:51:43;;;;;;;9.03;5.40;;;20.70;1.00;;;;;;5115905;28;20414;-78
2022/03/18 11:54:16;;;;;;;13.27;5.93;;;;;;;;;;5116306;28;20846;-78
2022/03/18 11:56:42;;;;;;;8.20;5.80;;;;;;;;;;5115764;28;20528;-78
2022/03/18 11:59:26;;;;;;;9.17;5.73;;;21.90;1.00;;;;;;5116117;28;20444;-78
2022/03/18 12:01:53;;;;;;;11.27;5.67;;;22.40;1.00;;;;;;5116147;28;20413;-78
2022/03/18 12:04:34;;;;;;;14.03;6.13;;;;;;;;;;5115991;28;20508;-78
2022/03/18 12:07:13;;;;;;;6.70;5.23;;;;;;;;;;5114263;28;20421;-78
2022/03/18 12:09:48;;;;;;;14.03;5.40;;;;;;;;;;5115908;28;20413;-78
2022/03/18 12:12:17;;;;;;;9.07;5.03;;;23.00;1.00;;;;;;5114621;28;20425;-78
2022/03/18 12:14:42;;;;;;;9.57;5.40;;;21.80;1.00;;;;;;5115866;28;20518;-78
2022/03/18 12:17:08;;;;;;;7.70;5.30;;;;;;;;;;5115802;28;20929;-78
2022/03/18 12:19:36;;;;;;;11.23;5.90;;;22.90;99.90;;;;;;5115815;28;20551;-78
2022/03/18 12:22:03;;;;;;;13.33;6.00;;;23.30;99.90;;;;;;5115591;28;20168;-78
2022/03/18 12:24:32;;;;;;;8.43;4.70;;;22.70;1.00;;;;;;5115548;28;20436;-78
2022/03/18 12:27:00;;;;;;;8.87;5.47;;;22.30;1.00;;;;;;5115561;28;20426;-78
2022/03/18 12:29:27;;;;;;;13.50;6.37;;;22.80;1.00;;;;;;5115504;28;20480;-77
2022/03/18 12:32:03;;;;;;;8.40;5.33;;;22.80;1.00;;;;;;5115591;28;20417;-78
2022/03/18 12:34:28;;;;;;;9.60;5.10;;;23.30;1.00;;;;;;5115131;28;20460;-78
2022/03/18 12:36:54;;;;;;;8.03;7.30;;;23.40;1.00;;;;;;5113656;28;20417;-78
2022/03/18 12:39:19;;;;;;;7.70;5.23;;;23.60;1.00;;;;;;5115426;27;20224;-78
2022/03/18 12:41:45;;;;;;;6.40;5.03;;;;;;;;;;5115279;28;20573;-78
2022/03/18 12:44:11;;;;;;;9.20;4.70;;;23.40;99.90;;;;;;5115183;28;20255;-78
2022/03/18 12:46:40;;;;;;;8.23;5.30;;;23.50;99.90;;;;;;5115185;28;20468;-78
2022/03/18 12:49:10;;;;;;;6.73;4.50;;;23.50;99.90;;;;;;5115006;28;20174;-78
2022/03/18 12:51:36;;;;;;;8.90;5.30;;;23.10;99.90;;;;;;5114753;28;20406;-78
2022/03/18 12:54:01;;;;;;;7.67;5.37;;;22.80;99.90;;;;;;5115100;28;20413;-78
2022/03/18 12:56:29;;;;;;;10.77;5.07;;;21.70;99.90;;;;;;5115030;28;20628;-78
2022/03/18 12:58:56;;;;;;;7.00;4.13;;;22.10;99.90;;;;;;5113610;28;20197;-78
2022/03/18 13:01:21;;;;;;;9.90;5.23;;;22.40;99.90;;;;;;5114831;28;20425;-78
2022/03/18 13:03:51;;;;;;;6.60;4.07;;;22.90;99.90;;;;;;5114975;28;20421;-79
2022/03/18 13:06:19;;;;;;;9.77;5.03;;;23.60;99.90;;;;;;5114264;28;20208;-79
2022/03/18 13:08:51;;;;;;;6.57;4.50;;;23.30;99.90;;;;;;5113979;28;20421;-79
2022/03/18 13:11:17;;;;;;;8.27;3.83;;;22.90;99.90;;;;;;5114693;28;20420;-78
2022/03/18 13:13:50;;;;;;;9.37;4.33;;;22.90;99.90;;;;;;5114803;28;20417;-79
2022/03/18 13:16:21;;;;;;;10.10;5.10;;;23.20;99.90;;;;;;5114615;28;20428;-78
2022/03/18 13:18:52;;;;;;;7.57;4.03;;;21.90;99.90;;;;;;5114635;28;20405;-79
2022/03/18 13:21:19;;;;;;;8.20;4.93;;;19.90;99.90;;;;;;5114256;28;20884;-79
2022/03/18 13:23:50;;;;;;;7.67;4.50;;;18.30;99.90;;;;;;5113319;28;20425;-78
2022/03/18 13:26:16;;;;;;;9.10;5.07;;;17.60;99.90;;;;;;5114476;28;20461;-78
2022/03/18 13:28:42;;;;;;;10.00;4.90;;;16.90;99.90;;;;;;5114451;28;20455;-79
2022/03/18 13:33:55;;;;;;;7.50;4.40;;;18.40;99.90;;;;;;5114314;28;20944;-80